Guangchang, China
Current Conditions -  °F | °C
As of 11:00 AM on Wednesday 22 Oct 2014 (Local Time) from ZSAM Reporting Station
Broken Clouds Broken Clouds  
Wind Chill: 77°   Ceiling: 5000
Heat Index: 78°   Visibility: 5mi
Dew Point: 72°   Wind: 13mph
Humidity: 83%   Direction: 80°E
Pressure: 30.03"   Gusts: NA
Location:  26.85°N, 116.33°E
Report Text: ZSAM 220300Z 08006MPS 8000 BKN050 25/22 Q1017 NOSIG
Loading
Personal Weather Stations






























Interactive Weather Map
Tropical Storm Tracking
New forecast layout! Learn more

10-Day Weather Forecast

Advertisements
Track Severe Weather on mobile